sensor_id;sensor_type;location;lat;lon;timestamp;temperature;humidity
14378;DHT22;7272;53.668;9.578;2023-10-09T00:02:40;13.00;99.90
14378;DHT22;7272;53.668;9.578;2023-10-09T00:05:44;12.90;99.90
14378;DHT22;7272;53.668;9.578;2023-10-09T00:08:47;12.90;99.90
14378;DHT22;7272;53.668;9.578;2023-10-09T00:11:55;12.80;99.90
14378;DHT22;7272;53.668;9.578;2023-10-09T00:14:57;12.80;99.90
14378;DHT22;7272;53.668;9.578;2023-10-09T00:18:12;12.90;99.90
14378;DHT22;7272;53.668;9.578;2023-10-09T00:21:14;12.80;99.90
14378;DHT22;7272;53.668;9.578;2023-10-09T00:24:17;12.80;99.90
14378;DHT22;7272;53.668;9.578;2023-10-09T00:27:24;12.80;99.90
14378;DHT22;7272;53.668;9.578;2023-10-09T00:30:32;12.80;99.90
14378;DHT22;7272;53.668;9.578;2023-10-09T00:33:33;12.80;99.90
14378;DHT22;7272;53.668;9.578;2023-10-09T00:36:35;12.70;99.90
14378;DHT22;7272;53.668;9.578;2023-10-09T00:39:51;12.60;99.90
14378;DHT22;7272;53.668;9.578;2023-10-09T00:42:59;12.60;99.90
14378;DHT22;7272;53.668;9.578;2023-10-09T00:46:05;12.50;99.90
14378;DHT22;7272;53.668;9.578;2023-10-09T00:49:12;12.40;99.90
14378;DHT22;7272;53.668;9.578;2023-10-09T00:52:16;12.40;99.90
14378;DHT22;7272;53.668;9.578;2023-10-09T00:55:25;12.30;99.90
14378;DHT22;7272;53.668;9.578;2023-10-09T00:58:38;12.30;99.90
14378;DHT22;7272;53.668;9.578;2023-10-09T01:01:41;12.30;99.90
14378;DHT22;7272;53.668;9.578;2023-10-09T01:04:49;12.20;99.90
14378;DHT22;7272;53.668;9.578;2023-10-09T01:07:51;12.20;99.90
14378;DHT22;7272;53.668;9.578;2023-10-09T01:10:59;12.20;99.90
14378;DHT22;7272;53.668;9.578;2023-10-09T01:14:09;12.30;99.90
14378;DHT22;7272;53.668;9.578;2023-10-09T01:17:13;12.50;99.90
14378;DHT22;7272;53.668;9.578;2023-10-09T01:20:29;12.40;99.90
14378;DHT22;7272;53.668;9.578;2023-10-09T01:23:42;12.30;99.90
14378;DHT22;7272;53.668;9.578;2023-10-09T01:27:03;12.30;99.90
14378;DHT22;7272;53.668;9.578;2023-10-09T01:30:07;12.30;99.90
14378;DHT22;7272;53.668;9.578;2023-10-09T01:33:14;12.20;99.90
14378;DHT22;7272;53.668;9.578;2023-10-09T01:36:22;12.20;99.90
14378;DHT22;7272;53.668;9.578;2023-10-09T01:39:32;12.20;99.90
14378;DHT22;7272;53.668;9.578;2023-10-09T01:42:40;12.40;99.90
14378;DHT22;7272;53.668;9.578;2023-10-09T01:45:45;12.50;99.90
14378;DHT22;7272;53.668;9.578;2023-10-09T01:48:47;12.50;99.90
14378;DHT22;7272;53.668;9.578;2023-10-09T01:51:49;12.40;99.90
14378;DHT22;7272;53.668;9.578;2023-10-09T01:54:52;12.40;99.90
14378;DHT22;7272;53.668;9.578;2023-10-09T01:57:53;12.40;99.90
14378;DHT22;7272;53.668;9.578;2023-10-09T02:00:55;12.40;99.90
14378;DHT22;7272;53.668;9.578;2023-10-09T02:03:57;12.40;99.90
14378;DHT22;7272;53.668;9.578;2023-10-09T02:07:06;12.40;99.90
14378;DHT22;7272;53.668;9.578;2023-10-09T02:10:12;12.40;99.90
14378;DHT22;7272;53.668;9.578;2023-10-09T02:13:22;12.40;99.90
14378;DHT22;7272;53.668;9.578;2023-10-09T02:16:29;12.40;99.90
14378;DHT22;7272;53.668;9.578;2023-10-09T02:19:42;12.50;99.90
14378;DHT22;7272;53.668;9.578;2023-10-09T02:22:43;12.60;99.90
14378;DHT22;7272;53.668;9.578;2023-10-09T02:25:45;12.60;99.90
14378;DHT22;7272;53.668;9.578;2023-10-09T02:28:47;12.60;99.90
14378;DHT22;7272;53.668;9.578;2023-10-09T02:31:59;12.60;99.90
14378;DHT22;7272;53.668;9.578;2023-10-09T02:35:13;12.50;99.90
14378;DHT22;7272;53.668;9.578;2023-10-09T02:38:36;12.50;99.90
14378;DHT22;7272;53.668;9.578;2023-10-09T02:41:39;12.50;99.90
14378;DHT22;7272;53.668;9.578;2023-10-09T02:44:50;12.50;99.90
14378;DHT22;7272;53.668;9.578;2023-10-09T02:47:52;12.40;99.90
14378;DHT22;7272;53.668;9.578;2023-10-09T02:50:56;12.40;99.90
14378;DHT22;7272;53.668;9.578;2023-10-09T02:53:59;12.40;99.90
14378;DHT22;7272;53.668;9.578;2023-10-09T02:57:07;12.30;99.90
14378;DHT22;7272;53.668;9.578;2023-10-09T03:00:09;12.30;99.90
14378;DHT22;7272;53.668;9.578;2023-10-09T03:03:19;12.20;99.90
14378;DHT22;7272;53.668;9.578;2023-10-09T03:06:21;12.20;99.90
14378;DHT22;7272;53.668;9.578;2023-10-09T03:09:31;12.20;99.90
14378;DHT22;7272;53.668;9.578;2023-10-09T03:12:33;12.20;99.90
14378;DHT22;7272;53.668;9.578;2023-10-09T03:15:35;12.20;99.90
14378;DHT22;7272;53.668;9.578;2023-10-09T03:18:36;12.20;99.90
14378;DHT22;7272;53.668;9.578;2023-10-09T03:21:38;12.30;99.90
14378;DHT22;7272;53.668;9.578;2023-10-09T03:24:39;12.30;99.90
14378;DHT22;7272;53.668;9.578;2023-10-09T03:27:44;12.20;99.90
14378;DHT22;7272;53.668;9.578;2023-10-09T03:30:46;12.20;99.90
14378;DHT22;7272;53.668;9.578;2023-10-09T03:33:48;12.10;99.90
14378;DHT22;7272;53.668;9.578;2023-10-09T03:36:49;12.10;99.90
14378;DHT22;7272;53.668;9.578;2023-10-09T03:40:00;12.10;99.90
14378;DHT22;7272;53.668;9.578;2023-10-09T03:43:02;12.10;99.90
14378;DHT22;7272;53.668;9.578;2023-10-09T03:46:05;12.10;99.90
14378;DHT22;7272;53.668;9.578;2023-10-09T03:49:14;12.10;99.90
14378;DHT22;7272;53.668;9.578;2023-10-09T03:52:23;12.10;99.90
14378;DHT22;7272;53.668;9.578;2023-10-09T03:55:28;12.10;99.90
14378;DHT22;7272;53.668;9.578;2023-10-09T03:58:30;12.10;99.90
14378;DHT22;7272;53.668;9.578;2023-10-09T04:01:34;12.00;99.90
14378;DHT22;7272;53.668;9.578;2023-10-09T04:04:38;12.00;99.90
14378;DHT22;7272;53.668;9.578;2023-10-09T04:07:39;12.00;99.90
14378;DHT22;7272;53.668;9.578;2023-10-09T04:10:42;12.00;99.90
14378;DHT22;7272;53.668;9.578;2023-10-09T04:13:53;12.00;99.90
14378;DHT22;7272;53.668;9.578;2023-10-09T04:16:55;11.90;99.90
14378;DHT22;7272;53.668;9.578;2023-10-09T04:20:17;12.00;99.90
14378;DHT22;7272;53.668;9.578;2023-10-09T04:23:36;12.00;99.90
14378;DHT22;7272;53.668;9.578;2023-10-09T04:26:57;12.00;99.90
14378;DHT22;7272;53.668;9.578;2023-10-09T04:30:00;12.00;99.90
14378;DHT22;7272;53.668;9.578;2023-10-09T04:33:01;12.00;99.90
14378;DHT22;7272;53.668;9.578;2023-10-09T04:36:11;11.90;99.90
14378;DHT22;7272;53.668;9.578;2023-10-09T04:39:17;11.90;99.90
14378;DHT22;7272;53.668;9.578;2023-10-09T04:42:33;11.90;99.90
14378;DHT22;7272;53.668;9.578;2023-10-09T04:45:38;11.90;99.90
14378;DHT22;7272;53.668;9.578;2023-10-09T04:48:57;11.90;99.90
14378;DHT22;7272;53.668;9.578;2023-10-09T04:52:16;11.90;99.90
14378;DHT22;7272;53.668;9.578;2023-10-09T04:55:40;11.90;99.90
14378;DHT22;7272;53.668;9.578;2023-10-09T04:58:44;11.90;99.90
14378;DHT22;7272;53.668;9.578;2023-10-09T05:01:49;11.90;99.90
14378;DHT22;7272;53.668;9.578;2023-10-09T05:04:58;11.90;99.90
14378;DHT22;7272;53.668;9.578;2023-10-09T05:08:17;11.90;99.90
14378;DHT22;7272;53.668;9.578;2023-10-09T05:11:22;11.90;99.90
14378;DHT22;7272;53.668;9.578;2023-10-09T05:14:53;11.90;99.90
14378;DHT22;7272;53.668;9.578;2023-10-09T05:18:09;11.80;99.90
14378;DHT22;7272;53.668;9.578;2023-10-09T05:21:16;11.80;99.90
14378;DHT22;7272;53.668;9.578;2023-10-09T05:24:37;11.80;99.90
14378;DHT22;7272;53.668;9.578;2023-10-09T05:27:47;11.80;99.90
14378;DHT22;7272;53.668;9.578;2023-10-09T05:30:51;11.90;99.90
14378;DHT22;7272;53.668;9.578;2023-10-09T05:34:03;11.90;99.90
14378;DHT22;7272;53.668;9.578;2023-10-09T05:37:07;11.90;99.90
14378;DHT22;7272;53.668;9.578;2023-10-09T05:40:18;11.90;99.90
14378;DHT22;7272;53.668;9.578;2023-10-09T05:43:31;11.80;99.90
14378;DHT22;7272;53.668;9.578;2023-10-09T05:46:51;11.80;99.90
14378;DHT22;7272;53.668;9.578;2023-10-09T05:50:25;11.80;99.90
14378;DHT22;7272;53.668;9.578;2023-10-09T05:53:35;11.80;99.90
14378;DHT22;7272;53.668;9.578;2023-10-09T05:57:09;11.70;99.90
14378;DHT22;7272;53.668;9.578;2023-10-09T06:00:25;11.70;99.90
14378;DHT22;7272;53.668;9.578;2023-10-09T06:03:45;11.80;99.90
14378;DHT22;7272;53.668;9.578;2023-10-09T06:06:49;11.80;99.90
14378;DHT22;7272;53.668;9.578;2023-10-09T06:09:57;11.70;99.90
14378;DHT22;7272;53.668;9.578;2023-10-09T06:12:58;11.70;99.90
14378;DHT22;7272;53.668;9.578;2023-10-09T06:16:04;11.70;99.90
14378;DHT22;7272;53.668;9.578;2023-10-09T06:19:32;11.70;99.90
14378;DHT22;7272;53.668;9.578;2023-10-09T06:22:44;11.60;99.90
14378;DHT22;7272;53.668;9.578;2023-10-09T06:25:57;11.60;99.90
14378;DHT22;7272;53.668;9.578;2023-10-09T06:29:06;11.60;99.90
14378;DHT22;7272;53.668;9.578;2023-10-09T06:32:17;11.70;99.90
14378;DHT22;7272;53.668;9.578;2023-10-09T06:35:35;11.90;99.90
14378;DHT22;7272;53.668;9.578;2023-10-09T06:38:37;11.90;99.90
14378;DHT22;7272;53.668;9.578;2023-10-09T06:41:52;11.80;99.90
14378;DHT22;7272;53.668;9.578;2023-10-09T06:45:11;11.80;99.90
14378;DHT22;7272;53.668;9.578;2023-10-09T06:48:17;11.80;99.90
14378;DHT22;7272;53.668;9.578;2023-10-09T06:51:35;11.70;99.90
14378;DHT22;7272;53.668;9.578;2023-10-09T06:54:43;11.70;99.90
14378;DHT22;7272;53.668;9.578;2023-10-09T06:57:50;11.80;99.90
14378;DHT22;7272;53.668;9.578;2023-10-09T07:00:55;11.80;99.90
14378;DHT22;7272;53.668;9.578;2023-10-09T07:04:20;11.80;99.90
14378;DHT22;7272;53.668;9.578;2023-10-09T07:07:41;11.90;99.90
14378;DHT22;7272;53.668;9.578;2023-10-09T07:10:53;11.90;99.90
14378;DHT22;7272;53.668;9.578;2023-10-09T07:14:15;11.80;99.90
14378;DHT22;7272;53.668;9.578;2023-10-09T07:17:32;11.80;99.90
14378;DHT22;7272;53.668;9.578;2023-10-09T07:20:48;11.80;99.90
14378;DHT22;7272;53.668;9.578;2023-10-09T07:23:59;11.80;99.90
14378;DHT22;7272;53.668;9.578;2023-10-09T07:27:16;11.80;99.90
14378;DHT22;7272;53.668;9.578;2023-10-09T07:30:19;11.80;99.90
14378;DHT22;7272;53.668;9.578;2023-10-09T07:33:35;11.90;99.90
14378;DHT22;7272;53.668;9.578;2023-10-09T07:36:51;11.90;99.90
14378;DHT22;7272;53.668;9.578;2023-10-09T07:39:57;11.90;99.90
14378;DHT22;7272;53.668;9.578;2023-10-09T07:42:58;12.00;99.90
14378;DHT22;7272;53.668;9.578;2023-10-09T07:46:06;12.00;99.90
14378;DHT22;7272;53.668;9.578;2023-10-09T07:49:25;12.00;99.90
14378;DHT22;7272;53.668;9.578;2023-10-09T07:52:27;12.00;99.90
14378;DHT22;7272;53.668;9.578;2023-10-09T07:55:30;12.00;99.90
14378;DHT22;7272;53.668;9.578;2023-10-09T07:58:40;12.00;99.90
14378;DHT22;7272;53.668;9.578;2023-10-09T08:01:49;12.10;99.90
14378;DHT22;7272;53.668;9.578;2023-10-09T08:04:53;12.10;99.90
14378;DHT22;7272;53.668;9.578;2023-10-09T08:07:54;12.10;99.90
14378;DHT22;7272;53.668;9.578;2023-10-09T08:10:58;12.20;99.90
14378;DHT22;7272;53.668;9.578;2023-10-09T08:14:17;12.30;99.90
14378;DHT22;7272;53.668;9.578;2023-10-09T08:17:44;12.30;99.90
14378;DHT22;7272;53.668;9.578;2023-10-09T08:20:49;12.30;99.90
14378;DHT22;7272;53.668;9.578;2023-10-09T08:24:12;12.30;99.90
14378;DHT22;7272;53.668;9.578;2023-10-09T08:27:29;12.30;99.90
14378;DHT22;7272;53.668;9.578;2023-10-09T08:30:46;12.40;99.90
14378;DHT22;7272;53.668;9.578;2023-10-09T08:33:50;12.40;99.90
14378;DHT22;7272;53.668;9.578;2023-10-09T08:36:58;12.40;99.90
14378;DHT22;7272;53.668;9.578;2023-10-09T08:40:01;12.50;99.90
14378;DHT22;7272;53.668;9.578;2023-10-09T08:43:14;12.50;99.90
14378;DHT22;7272;53.668;9.578;2023-10-09T08:46:19;12.50;99.90
14378;DHT22;7272;53.668;9.578;2023-10-09T08:49:20;12.50;99.90
14378;DHT22;7272;53.668;9.578;2023-10-09T08:52:23;12.50;99.90
14378;DHT22;7272;53.668;9.578;2023-10-09T08:55:25;12.60;99.90
14378;DHT22;7272;53.668;9.578;2023-10-09T08:58:27;12.60;99.90
14378;DHT22;7272;53.668;9.578;2023-10-09T09:01:34;12.60;99.90
14378;DHT22;7272;53.668;9.578;2023-10-09T09:04:37;12.60;99.90
14378;DHT22;7272;53.668;9.578;2023-10-09T09:07:39;12.70;99.90
14378;DHT22;7272;53.668;9.578;2023-10-09T09:10:43;12.70;99.90
14378;DHT22;7272;53.668;9.578;2023-10-09T09:13:48;12.70;99.90
14378;DHT22;7272;53.668;9.578;2023-10-09T09:17:06;12.70;99.90
14378;DHT22;7272;53.668;9.578;2023-10-09T09:20:21;12.90;99.90
14378;DHT22;7272;53.668;9.578;2023-10-09T09:23:29;13.10;99.90
14378;DHT22;7272;53.668;9.578;2023-10-09T09:26:38;13.10;99.90
14378;DHT22;7272;53.668;9.578;2023-10-09T09:29:46;13.00;99.90
14378;DHT22;7272;53.668;9.578;2023-10-09T09:32:54;13.00;99.90
14378;DHT22;7272;53.668;9.578;2023-10-09T09:36:09;13.00;99.90
14378;DHT22;7272;53.668;9.578;2023-10-09T09:39:11;13.10;99.90
14378;DHT22;7272;53.668;9.578;2023-10-09T09:42:20;13.10;99.90
14378;DHT22;7272;53.668;9.578;2023-10-09T09:45:26;13.10;99.90
14378;DHT22;7272;53.668;9.578;2023-10-09T09:48:29;13.10;99.90
14378;DHT22;7272;53.668;9.578;2023-10-09T09:51:33;13.20;99.90
14378;DHT22;7272;53.668;9.578;2023-10-09T09:54:35;13.30;99.90
14378;DHT22;7272;53.668;9.578;2023-10-09T09:57:37;13.30;99.90
14378;DHT22;7272;53.668;9.578;2023-10-09T10:00:40;13.40;99.90
14378;DHT22;7272;53.668;9.578;2023-10-09T10:03:49;13.50;99.90
14378;DHT22;7272;53.668;9.578;2023-10-09T10:06:52;13.50;99.90
14378;DHT22;7272;53.668;9.578;2023-10-09T10:09:55;13.60;99.90
14378;DHT22;7272;53.668;9.578;2023-10-09T10:12:58;13.60;99.90
14378;DHT22;7272;53.668;9.578;2023-10-09T10:16:06;13.60;99.90
14378;DHT22;7272;53.668;9.578;2023-10-09T10:19:14;13.60;99.90
14378;DHT22;7272;53.668;9.578;2023-10-09T10:22:26;13.70;99.90
14378;DHT22;7272;53.668;9.578;2023-10-09T10:25:35;13.80;99.90
14378;DHT22;7272;53.668;9.578;2023-10-09T10:28:41;13.90;99.90
14378;DHT22;7272;53.668;9.578;2023-10-09T10:31:56;14.00;99.90
14378;DHT22;7272;53.668;9.578;2023-10-09T10:34:58;14.00;99.90
14378;DHT22;7272;53.668;9.578;2023-10-09T10:38:23;14.00;99.90
14378;DHT22;7272;53.668;9.578;2023-10-09T10:41:24;14.10;99.90
14378;DHT22;7272;53.668;9.578;2023-10-09T10:44:29;14.20;99.90
14378;DHT22;7272;53.668;9.578;2023-10-09T10:47:37;14.20;99.90
14378;DHT22;7272;53.668;9.578;2023-10-09T10:50:41;14.30;99.90
14378;DHT22;7272;53.668;9.578;2023-10-09T10:53:53;14.30;99.90
14378;DHT22;7272;53.668;9.578;2023-10-09T10:56:58;14.40;99.90
14378;DHT22;7272;53.668;9.578;2023-10-09T11:00:00;14.50;99.90
14378;DHT22;7272;53.668;9.578;2023-10-09T11:03:17;14.50;99.90
14378;DHT22;7272;53.668;9.578;2023-10-09T11:06:28;14.50;99.90
14378;DHT22;7272;53.668;9.578;2023-10-09T11:09:44;14.60;99.90
14378;DHT22;7272;53.668;9.578;2023-10-09T11:12:58;14.60;99.90
14378;DHT22;7272;53.668;9.578;2023-10-09T11:16:18;14.60;99.90
14378;DHT22;7272;53.668;9.578;2023-10-09T11:19:29;14.60;99.90
14378;DHT22;7272;53.668;9.578;2023-10-09T11:22:32;14.70;99.90
14378;DHT22;7272;53.668;9.578;2023-10-09T11:25:41;14.70;99.90
14378;DHT22;7272;53.668;9.578;2023-10-09T11:29:06;14.80;99.90
14378;DHT22;7272;53.668;9.578;2023-10-09T11:32:16;14.90;99.90
14378;DHT22;7272;53.668;9.578;2023-10-09T11:35:18;15.00;99.90
14378;DHT22;7272;53.668;9.578;2023-10-09T11:38:36;15.00;99.90
14378;DHT22;7272;53.668;9.578;2023-10-09T11:41:39;15.10;99.90
14378;DHT22;7272;53.668;9.578;2023-10-09T11:44:42;15.10;99.90
14378;DHT22;7272;53.668;9.578;2023-10-09T11:47:46;15.20;99.90
14378;DHT22;7272;53.668;9.578;2023-10-09T11:50:57;15.20;99.90
14378;DHT22;7272;53.668;9.578;2023-10-09T11:54:29;15.20;99.90
14378;DHT22;7272;53.668;9.578;2023-10-09T11:57:32;15.30;99.90
14378;DHT22;7272;53.668;9.578;2023-10-09T12:00:34;15.30;99.90
14378;DHT22;7272;53.668;9.578;2023-10-09T12:03:46;15.40;99.90
14378;DHT22;7272;53.668;9.578;2023-10-09T12:06:50;15.40;99.90
14378;DHT22;7272;53.668;9.578;2023-10-09T12:10:07;15.50;99.90
14378;DHT22;7272;53.668;9.578;2023-10-09T12:13:11;15.60;99.90
14378;DHT22;7272;53.668;9.578;2023-10-09T12:16:12;15.60;99.90
14378;DHT22;7272;53.668;9.578;2023-10-09T12:19:15;15.60;99.90
14378;DHT22;7272;53.668;9.578;2023-10-09T12:22:17;15.70;99.90
14378;DHT22;7272;53.668;9.578;2023-10-09T12:25:18;15.70;99.90
14378;DHT22;7272;53.668;9.578;2023-10-09T12:28:20;15.80;99.90
14378;DHT22;7272;53.668;9.578;2023-10-09T12:31:21;15.90;99.90
14378;DHT22;7272;53.668;9.578;2023-10-09T12:34:25;16.00;99.90
14378;DHT22;7272;53.668;9.578;2023-10-09T12:37:27;16.00;99.90
14378;DHT22;7272;53.668;9.578;2023-10-09T12:40:30;16.00;99.90
14378;DHT22;7272;53.668;9.578;2023-10-09T12:43:31;16.10;99.90
14378;DHT22;7272;53.668;9.578;2023-10-09T12:46:38;16.10;99.90
14378;DHT22;7272;53.668;9.578;2023-10-09T12:49:39;16.10;99.90
14378;DHT22;7272;53.668;9.578;2023-10-09T12:52:41;16.10;99.90
14378;DHT22;7272;53.668;9.578;2023-10-09T12:55:43;16.20;99.90
14378;DHT22;7272;53.668;9.578;2023-10-09T12:58:45;16.20;99.90
14378;DHT22;7272;53.668;9.578;2023-10-09T13:01:53;16.30;99.90
14378;DHT22;7272;53.668;9.578;2023-10-09T13:04:58;16.30;99.90
14378;DHT22;7272;53.668;9.578;2023-10-09T13:08:00;16.40;99.90
14378;DHT22;7272;53.668;9.578;2023-10-09T13:11:04;16.40;99.90
14378;DHT22;7272;53.668;9.578;2023-10-09T13:14:11;16.40;99.90
14378;DHT22;7272;53.668;9.578;2023-10-09T13:17:17;16.50;99.90
14378;DHT22;7272;53.668;9.578;2023-10-09T13:20:21;16.50;99.90
14378;DHT22;7272;53.668;9.578;2023-10-09T13:23:22;16.60;99.90
14378;DHT22;7272;53.668;9.578;2023-10-09T13:26:35;16.60;99.90
14378;DHT22;7272;53.668;9.578;2023-10-09T13:29:36;16.70;99.90
14378;DHT22;7272;53.668;9.578;2023-10-09T13:32:40;16.90;99.90
14378;DHT22;7272;53.668;9.578;2023-10-09T13:35:41;16.90;99.90
14378;DHT22;7272;53.668;9.578;2023-10-09T13:38:51;17.00;99.90
14378;DHT22;7272;53.668;9.578;2023-10-09T13:41:55;17.00;99.90
14378;DHT22;7272;53.668;9.578;2023-10-09T13:44:58;17.00;99.90
14378;DHT22;7272;53.668;9.578;2023-10-09T13:48:05;17.10;99.90
14378;DHT22;7272;53.668;9.578;2023-10-09T13:51:13;17.10;99.90
14378;DHT22;7272;53.668;9.578;2023-10-09T13:54:17;17.20;99.90
14378;DHT22;7272;53.668;9.578;2023-10-09T13:57:24;17.20;99.90
14378;DHT22;7272;53.668;9.578;2023-10-09T14:00:31;17.20;99.90
14378;DHT22;7272;53.668;9.578;2023-10-09T14:03:42;17.30;99.90
14378;DHT22;7272;53.668;9.578;2023-10-09T14:06:49;17.40;99.90
14378;DHT22;7272;53.668;9.578;2023-10-09T14:09:57;17.40;99.90
14378;DHT22;7272;53.668;9.578;2023-10-09T14:13:08;17.40;99.90
14378;DHT22;7272;53.668;9.578;2023-10-09T14:16:13;17.40;99.90
14378;DHT22;7272;53.668;9.578;2023-10-09T14:19:24;17.40;99.90
14378;DHT22;7272;53.668;9.578;2023-10-09T14:22:25;17.40;99.90
14378;DHT22;7272;53.668;9.578;2023-10-09T14:25:29;17.40;99.90
14378;DHT22;7272;53.668;9.578;2023-10-09T14:28:31;17.40;99.90
14378;DHT22;7272;53.668;9.578;2023-10-09T14:31:32;17.40;99.90
14378;DHT22;7272;53.668;9.578;2023-10-09T14:34:39;17.40;99.90
14378;DHT22;7272;53.668;9.578;2023-10-09T14:37:43;17.30;99.90
14378;DHT22;7272;53.668;9.578;2023-10-09T14:40:45;17.30;99.90
14378;DHT22;7272;53.668;9.578;2023-10-09T14:43:47;17.20;99.90
14378;DHT22;7272;53.668;9.578;2023-10-09T14:46:49;17.20;99.90
14378;DHT22;7272;53.668;9.578;2023-10-09T14:49:51;17.30;99.90
14378;DHT22;7272;53.668;9.578;2023-10-09T14:52:54;17.20;99.90
14378;DHT22;7272;53.668;9.578;2023-10-09T14:55:56;17.20;99.90
14378;DHT22;7272;53.668;9.578;2023-10-09T14:58:59;17.20;99.90
14378;DHT22;7272;53.668;9.578;2023-10-09T15:02:00;17.20;99.90
14378;DHT22;7272;53.668;9.578;2023-10-09T15:05:01;17.20;99.90
14378;DHT22;7272;53.668;9.578;2023-10-09T15:08:05;17.20;99.90
14378;DHT22;7272;53.668;9.578;2023-10-09T15:11:11;17.20;99.90
14378;DHT22;7272;53.668;9.578;2023-10-09T15:14:13;17.20;99.90
14378;DHT22;7272;53.668;9.578;2023-10-09T15:17:14;17.20;99.90
14378;DHT22;7272;53.668;9.578;2023-10-09T15:20:16;17.20;99.90
14378;DHT22;7272;53.668;9.578;2023-10-09T15:23:18;17.20;99.90
14378;DHT22;7272;53.668;9.578;2023-10-09T15:26:21;17.20;99.90
14378;DHT22;7272;53.668;9.578;2023-10-09T15:29:26;17.20;99.90
14378;DHT22;7272;53.668;9.578;2023-10-09T15:32:29;17.20;99.90
14378;DHT22;7272;53.668;9.578;2023-10-09T15:35:30;17.20;99.90
14378;DHT22;7272;53.668;9.578;2023-10-09T15:38:34;17.20;99.90
14378;DHT22;7272;53.668;9.578;2023-10-09T15:41:35;17.10;99.90
14378;DHT22;7272;53.668;9.578;2023-10-09T15:44:40;17.10;99.90
14378;DHT22;7272;53.668;9.578;2023-10-09T15:47:42;17.30;99.90
14378;DHT22;7272;53.668;9.578;2023-10-09T15:50:45;17.30;99.90
14378;DHT22;7272;53.668;9.578;2023-10-09T15:53:52;17.10;99.90
14378;DHT22;7272;53.668;9.578;2023-10-09T15:56:53;17.00;99.90
14378;DHT22;7272;53.668;9.578;2023-10-09T15:59:55;17.00;99.90
14378;DHT22;7272;53.668;9.578;2023-10-09T16:02:58;16.90;99.90
14378;DHT22;7272;53.668;9.578;2023-10-09T16:06:01;16.90;99.90
14378;DHT22;7272;53.668;9.578;2023-10-09T16:09:02;16.90;99.90
14378;DHT22;7272;53.668;9.578;2023-10-09T16:12:04;17.00;99.90
14378;DHT22;7272;53.668;9.578;2023-10-09T16:15:07;17.10;99.90
14378;DHT22;7272;53.668;9.578;2023-10-09T16:18:10;17.10;99.90
14378;DHT22;7272;53.668;9.578;2023-10-09T16:21:12;17.00;99.90
14378;DHT22;7272;53.668;9.578;2023-10-09T16:24:13;17.00;99.90
14378;DHT22;7272;53.668;9.578;2023-10-09T16:27:15;17.00;99.90
14378;DHT22;7272;53.668;9.578;2023-10-09T16:30:21;16.90;99.90
14378;DHT22;7272;53.668;9.578;2023-10-09T16:33:22;16.90;99.90
14378;DHT22;7272;53.668;9.578;2023-10-09T16:36:24;16.90;99.90
14378;DHT22;7272;53.668;9.578;2023-10-09T16:39:27;16.80;99.90
14378;DHT22;7272;53.668;9.578;2023-10-09T16:42:35;17.00;99.90
14378;DHT22;7272;53.668;9.578;2023-10-09T16:45:37;16.90;99.90
14378;DHT22;7272;53.668;9.578;2023-10-09T16:48:44;16.80;99.90
14378;DHT22;7272;53.668;9.578;2023-10-09T16:51:47;16.80;99.90
14378;DHT22;7272;53.668;9.578;2023-10-09T16:54:49;16.70;99.90
14378;DHT22;7272;53.668;9.578;2023-10-09T16:57:50;16.70;99.90
14378;DHT22;7272;53.668;9.578;2023-10-09T17:00:53;16.50;99.90
14378;DHT22;7272;53.668;9.578;2023-10-09T17:03:56;16.40;99.90
14378;DHT22;7272;53.668;9.578;2023-10-09T17:06:58;16.30;99.90
14378;DHT22;7272;53.668;9.578;2023-10-09T17:10:02;16.30;99.90
14378;DHT22;7272;53.668;9.578;2023-10-09T17:13:14;16.20;99.90
14378;DHT22;7272;53.668;9.578;2023-10-09T17:16:22;16.20;99.90
14378;DHT22;7272;53.668;9.578;2023-10-09T17:19:25;16.30;99.90
14378;DHT22;7272;53.668;9.578;2023-10-09T17:22:26;16.20;99.90
14378;DHT22;7272;53.668;9.578;2023-10-09T17:25:28;16.30;99.90
14378;DHT22;7272;53.668;9.578;2023-10-09T17:28:31;16.30;99.90
14378;DHT22;7272;53.668;9.578;2023-10-09T17:31:33;16.30;99.90
14378;DHT22;7272;53.668;9.578;2023-10-09T17:34:36;16.30;99.90
14378;DHT22;7272;53.668;9.578;2023-10-09T17:37:40;16.20;99.90
14378;DHT22;7272;53.668;9.578;2023-10-09T17:40:45;16.20;99.90
14378;DHT22;7272;53.668;9.578;2023-10-09T17:43:49;16.20;99.90
14378;DHT22;7272;53.668;9.578;2023-10-09T17:46:52;16.20;99.90
14378;DHT22;7272;53.668;9.578;2023-10-09T17:49:53;16.20;99.90
14378;DHT22;7272;53.668;9.578;2023-10-09T17:52:54;16.30;99.90
14378;DHT22;7272;53.668;9.578;2023-10-09T17:56:00;16.20;99.90
14378;DHT22;7272;53.668;9.578;2023-10-09T17:59:01;16.20;99.90
14378;DHT22;7272;53.668;9.578;2023-10-09T18:02:04;16.20;99.90
14378;DHT22;7272;53.668;9.578;2023-10-09T18:05:06;16.10;99.90
14378;DHT22;7272;53.668;9.578;2023-10-09T18:08:09;16.10;99.90
14378;DHT22;7272;53.668;9.578;2023-10-09T18:11:15;16.10;99.90
14378;DHT22;7272;53.668;9.578;2023-10-09T18:14:17;16.10;99.90
14378;DHT22;7272;53.668;9.578;2023-10-09T18:17:19;16.20;99.90
14378;DHT22;7272;53.668;9.578;2023-10-09T18:20:21;16.20;99.90
14378;DHT22;7272;53.668;9.578;2023-10-09T18:23:22;16.20;99.90
14378;DHT22;7272;53.668;9.578;2023-10-09T18:26:23;16.30;99.90
14378;DHT22;7272;53.668;9.578;2023-10-09T18:29:26;16.20;99.90
14378;DHT22;7272;53.668;9.578;2023-10-09T18:32:28;16.20;99.90
14378;DHT22;7272;53.668;9.578;2023-10-09T18:35:29;16.20;99.90
14378;DHT22;7272;53.668;9.578;2023-10-09T18:38:31;16.20;99.90
14378;DHT22;7272;53.668;9.578;2023-10-09T18:41:32;16.20;99.90
14378;DHT22;7272;53.668;9.578;2023-10-09T18:44:34;16.20;99.90
14378;DHT22;7272;53.668;9.578;2023-10-09T18:47:36;16.20;99.90
14378;DHT22;7272;53.668;9.578;2023-10-09T18:50:38;16.20;99.90
14378;DHT22;7272;53.668;9.578;2023-10-09T18:53:42;16.20;99.90
14378;DHT22;7272;53.668;9.578;2023-10-09T18:56:44;16.20;99.90
14378;DHT22;7272;53.668;9.578;2023-10-09T18:59:45;16.20;99.90
14378;DHT22;7272;53.668;9.578;2023-10-09T19:02:47;16.20;99.90
14378;DHT22;7272;53.668;9.578;2023-10-09T19:05:51;16.30;99.90
14378;DHT22;7272;53.668;9.578;2023-10-09T19:08:52;16.50;99.90
14378;DHT22;7272;53.668;9.578;2023-10-09T19:11:55;16.40;99.90
14378;DHT22;7272;53.668;9.578;2023-10-09T19:14:58;16.30;99.90
14378;DHT22;7272;53.668;9.578;2023-10-09T19:17:59;16.30;99.90
14378;DHT22;7272;53.668;9.578;2023-10-09T19:21:04;16.20;99.90
14378;DHT22;7272;53.668;9.578;2023-10-09T19:24:08;16.20;99.90
14378;DHT22;7272;53.668;9.578;2023-10-09T19:27:12;16.10;99.90
14378;DHT22;7272;53.668;9.578;2023-10-09T19:30:14;16.30;99.90
14378;DHT22;7272;53.668;9.578;2023-10-09T19:33:17;16.40;99.90
14378;DHT22;7272;53.668;9.578;2023-10-09T19:36:19;16.40;99.90
14378;DHT22;7272;53.668;9.578;2023-10-09T19:39:24;16.30;99.90
14378;DHT22;7272;53.668;9.578;2023-10-09T19:42:25;16.30;99.90
14378;DHT22;7272;53.668;9.578;2023-10-09T19:45:26;16.20;99.90
14378;DHT22;7272;53.668;9.578;2023-10-09T19:48:31;16.30;99.90
14378;DHT22;7272;53.668;9.578;2023-10-09T19:51:33;16.20;99.90
14378;DHT22;7272;53.668;9.578;2023-10-09T19:54:35;16.30;99.90
14378;DHT22;7272;53.668;9.578;2023-10-09T19:57:38;16.50;99.90